Time;durP1;ratioP1;P1;durP2;ratioP2;P2;SDS_P1;SDS_P2;PMS_P1;PMS_P2;Temp;Humidity;BMP_temperature;BMP_pressure;BME280_temperature;BME280_humidity;BME280_pressure;Samples;Min_cycle;Max_cycle;Signal;HPM_P1;HPM_P2
2023/07/21 00:03:45;;;;;;;3.13;2.03;;;;;;;19.09;41.60;99284.69;10308804;28;20269;-37
2023/07/21 00:08:47;;;;;;;4.05;2.50;;;;;;;17.57;45.13;99271.28;10304062;28;20235;-36
2023/07/21 00:13:49;;;;;;;2.75;2.00;;;;;;;18.16;44.35;99224.88;10315797;28;20245;-37
2023/07/21 00:18:51;;;;;;;3.75;2.42;;;;;;;20.12;41.77;99179.75;10314782;28;20852;-36
2023/07/21 00:23:53;;;;;;;3.42;2.30;;;;;;;21.21;39.88;99255.31;10311338;28;20329;-36
2023/07/21 00:28:55;;;;;;;3.42;2.20;;;;;;;21.11;39.82;99294.16;10312870;28;20772;-35
2023/07/21 00:33:57;;;;;;;3.28;2.33;;;;;;;19.74;42.11;99336.44;10314676;28;20226;-36
2023/07/21 00:38:59;;;;;;;3.25;2.10;;;;;;;19.12;43.03;99330.28;10313612;28;20254;-36
2023/07/21 00:44:02;;;;;;;2.35;2.15;;;;;;;17.60;45.83;99290.53;10313320;28;20260;-36
2023/07/21 00:49:05;;;;;;;3.22;2.20;;;;;;;17.15;46.35;99291.31;10312660;28;20244;-36
2023/07/21 00:54:07;;;;;;;3.70;2.28;;;;;;;18.31;44.06;99246.78;10314641;28;20317;-36
2023/07/21 00:59:09;;;;;;;3.42;2.50;;;;;;;20.11;41.84;99235.19;10312249;28;20237;-36
2023/07/21 01:04:11;;;;;;;2.15;1.95;;;;;;;18.04;43.76;99298.88;10314006;28;20238;-36
2023/07/21 01:09:13;;;;;;;2.53;1.85;;;;;;;18.88;42.32;99331.56;10312802;28;20284;-36
2023/07/21 01:14:15;;;;;;;3.03;2.40;;;;;;;18.91;42.79;99301.22;10312297;28;20226;-36
2023/07/21 01:19:17;;;;;;;4.97;2.40;;;;;;;19.14;42.54;99335.44;10312824;28;20234;-36
2023/07/21 01:24:49;;;;;;;3.13;2.38;;;;;;;19.75;42.19;99302.75;10312654;28;20238;-36
2023/07/21 01:29:52;;;;;;;2.40;1.90;;;;;;;20.62;40.96;99265.38;10309663;28;20234;-36
2023/07/21 01:34:56;;;;;;;3.13;1.85;;;;;;;20.23;41.58;99279.28;10311135;28;20231;-36
2023/07/21 01:39:59;;;;;;;4.38;1.92;;;;;;;20.06;42.04;99300.31;10308240;28;20230;-36
2023/07/21 01:45:04;;;;;;;3.30;2.25;;;;;;;20.29;41.51;99291.00;10310240;28;20733;-36
2023/07/21 01:50:13;;;;;;;2.30;2.10;;;;;;;20.69;41.24;99227.91;10311117;28;20303;-36
2023/07/21 01:55:35;;;;;;;2.30;1.98;;;;;;;20.54;40.67;99276.75;10309982;28;20237;-36
2023/07/21 02:00:40;;;;;;;2.53;2.30;;;;;;;20.31;41.69;99258.94;10310248;28;20250;-36
2023/07/21 02:05:51;;;;;;;3.10;2.15;;;;;;;20.62;40.72;99310.78;10308528;28;20311;-36
2023/07/21 02:10:53;;;;;;;2.42;1.90;;;;;;;19.56;42.28;99349.25;10311321;28;20321;-36
2023/07/21 02:15:55;;;;;;;4.63;2.00;;;;;;;20.29;41.91;99220.38;10310620;28;20226;-36
2023/07/21 02:21:02;;;;;;;3.60;2.30;;;;;;;20.80;41.46;99222.53;10310342;28;20241;-36
2023/07/21 02:26:04;;;;;;;2.55;2.13;;;;;;;19.70;42.83;99273.66;10307630;28;20241;-36
2023/07/21 02:31:06;;;;;;;2.97;2.28;;;;;;;19.83;42.54;99277.84;10311455;28;20236;-36
2023/07/21 02:36:08;;;;;;;3.83;2.25;;;;;;;20.27;41.73;99220.63;10307330;28;20730;-36
2023/07/21 02:41:10;;;;;;;2.97;2.05;;;;;;;20.12;41.88;99244.94;10309753;28;20818;-36
2023/07/21 02:46:13;;;;;;;3.45;2.20;;;;;;;19.74;42.78;99287.56;10308199;28;20711;-36
2023/07/21 02:51:15;;;;;;;2.95;2.30;;;;;;;19.84;42.55;99257.78;10324471;28;20221;-36
2023/07/21 02:56:17;;;;;;;2.30;2.10;;;;;;;19.78;42.71;99245.25;10305926;28;20237;-35
2023/07/21 03:01:20;;;;;;;2.85;2.25;;;;;;;19.58;42.82;99252.13;10309875;28;20249;-35
2023/07/21 03:06:22;;;;;;;1.90;1.80;;;;;;;19.53;43.03;99248.53;10309367;28;20230;-36
2023/07/21 03:11:25;;;;;;;3.60;2.60;;;;;;;19.72;42.61;99249.81;10309724;28;20264;-36
2023/07/21 03:16:26;;;;;;;7.30;3.13;;;;;;;19.66;42.19;99280.69;10306691;28;20254;-35
2023/07/21 03:21:29;;;;;;;2.83;2.35;;;;;;;18.99;43.19;99315.19;10309809;28;20847;-35
2023/07/21 03:26:31;;;;;;;3.25;2.28;;;;;;;19.17;43.78;99246.28;10307531;28;20233;-35
2023/07/21 03:31:34;;;;;;;2.45;2.10;;;;;;;19.05;43.64;99255.59;10309536;28;20321;-36
2023/07/21 03:36:35;;;;;;;3.30;2.60;;;;;;;18.72;43.88;99301.53;10317444;28;20255;-35
2023/07/21 03:41:37;;;;;;;2.65;2.45;;;;;;;18.86;44.28;99258.66;10308453;28;20293;-36
2023/07/21 03:46:39;;;;;;;4.75;2.50;;;;;;;18.96;44.26;99244.41;10310467;28;20238;-35
2023/07/21 03:51:41;;;;;;;3.17;2.60;;;;;;;18.94;44.76;99254.69;10316393;28;20317;-36
2023/07/21 03:56:43;;;;;;;2.47;2.20;;;;;;;19.49;43.73;99199.38;10315241;28;20312;-35
2023/07/21 04:01:45;;;;;;;4.22;3.20;;;;;;;18.84;45.04;99256.19;10314311;28;20242;-35
2023/07/21 04:06:47;;;;;;;3.08;2.35;;;;;;;18.92;44.77;99246.78;10315564;28;20312;-35
2023/07/21 04:11:49;;;;;;;2.95;2.28;;;;;;;19.21;44.33;99292.69;10314083;28;20313;-36
2023/07/21 04:16:53;;;;;;;2.88;2.35;;;;;;;19.56;43.82;99259.69;10314163;28;20710;-36
2023/07/21 04:21:55;;;;;;;4.10;2.10;;;;;;;18.92;44.70;99276.63;10314462;28;20242;-36
2023/07/21 04:26:57;;;;;;;2.78;2.47;;;;;;;19.60;44.08;99226.63;10311979;28;20620;-36
2023/07/21 04:31:59;;;;;;;3.33;2.10;;;;;;;19.53;43.50;99310.94;10315632;28;20798;-35
2023/07/21 04:37:02;;;;;;;3.88;2.63;;;;;;;20.24;42.33;99270.03;10314261;28;20228;-36
2023/07/21 04:42:04;;;;;;;5.72;2.50;;;;;;;20.73;41.62;99262.72;10313840;28;20238;-35
2023/07/21 04:47:06;;;;;;;6.47;2.95;;;;;;;19.33;43.02;99338.66;10313599;28;20238;-36
2023/07/21 04:52:08;;;;;;;2.47;2.20;;;;;;;17.94;44.84;99336.63;10314412;28;20234;-35
2023/07/21 04:57:10;;;;;;;3.05;1.95;;;;;;;19.52;42.64;99277.56;10312141;28;20692;-36
2023/07/21 05:02:12;;;;;;;2.87;2.37;;;;;;;19.38;42.94;99257.31;10314509;28;20574;-36
2023/07/21 05:07:14;;;;;;;2.38;2.17;;;;;;;19.92;41.88;99278.19;10313184;28;20241;-35
2023/07/21 05:12:15;;;;;;;3.63;1.85;;;;;;;20.66;41.22;99254.78;10314339;28;20900;-35
2023/07/21 05:17:17;;;;;;;5.13;2.22;;;;;;;19.95;41.46;99311.06;10312069;28;20234;-35
2023/07/21 05:22:20;;;;;;;3.17;2.20;;;;;;;20.08;41.17;99314.47;10308943;28;20251;-36
2023/07/21 05:27:22;;;;;;;2.72;2.45;;;;;;;19.95;41.62;99297.50;10310005;28;20234;-35
2023/07/21 05:32:24;;;;;;;4.20;2.13;;;;;;;20.85;40.70;99239.69;10312545;28;20218;-36
2023/07/21 05:37:26;;;;;;;3.20;2.28;;;;;;;20.18;42.08;99300.16;10309171;28;20226;-36
2023/07/21 05:42:27;;;;;;;3.92;2.22;;;;;;;19.33;42.68;99344.06;10309117;28;20694;-36
2023/07/21 05:47:30;;;;;;;3.03;2.10;;;;;;;19.83;42.55;99296.88;10310560;28;20240;-35
2023/07/21 05:52:32;;;;;;;3.88;2.22;;;;;;;20.19;42.61;99280.06;10310714;28;20236;-35
2023/07/21 05:57:34;;;;;;;3.60;2.20;;;;;;;19.68;42.81;99323.88;10310013;28;20289;-35
2023/07/21 06:02:36;;;;;;;2.20;2.00;;;;;;;19.85;42.55;99288.47;10306691;28;20221;-36
2023/07/21 06:07:42;;;;;;;4.13;2.40;;;;;;;20.33;41.66;99326.59;10307319;28;20690;-36
2023/07/21 06:12:44;;;;;;;3.38;2.40;;;;;;;20.61;41.55;99284.66;10308847;28;20234;-36
2023/07/21 06:17:46;;;;;;;3.53;2.20;;;;;;;20.20;41.51;99295.28;10307801;28;20324;-36
2023/07/21 06:22:48;;;;;;;2.17;1.90;;;;;;;19.47;42.50;99361.63;10309275;28;20242;-36
2023/07/21 06:27:50;;;;;;;1.88;1.70;;;;;;;19.13;43.79;99340.06;10310005;28;20288;-35
2023/07/21 06:32:52;;;;;;;2.78;2.20;;;;;;;19.81;43.22;99260.22;10306845;28;20206;-36
2023/07/21 06:37:54;;;;;;;3.47;2.13;;;;;;;20.19;42.32;99280.06;10307453;28;20244;-36
2023/07/21 06:42:56;;;;;;;5.13;2.10;;;;;;;19.89;42.25;99316.72;10311035;28;22251;-36
2023/07/21 06:47:58;;;;;;;3.10;2.40;;;;;;;20.11;41.87;99324.81;10304360;28;20237;-36
2023/07/21 06:52:59;;;;;;;4.38;2.78;;;;;;;19.89;42.31;99350.13;10316590;28;20257;-36
2023/07/21 06:58:01;;;;;;;2.45;1.90;;;;;;;20.21;42.11;99324.91;10308016;28;20250;-35
2023/07/21 07:03:05;;;;;;;3.03;1.92;;;;;;;20.80;41.50;99250.56;10306657;28;20696;-36
2023/07/21 07:08:07;;;;;;;2.63;2.20;;;;;;;21.60;40.87;99231.16;10306625;28;20252;-35
2023/07/21 07:13:09;;;;;;;2.58;1.95;;;;;;;21.06;41.04;99296.88;10306637;28;20217;-36
2023/07/21 07:18:11;;;;;;;1.85;1.70;;;;;;;20.79;41.70;99365.00;10305138;28;20230;-36
2023/07/21 07:23:13;;;;;;;4.78;2.03;;;;;;;20.01;43.17;99360.84;10313529;28;20994;-35
2023/07/21 07:28:17;;;;;;;4.15;1.80;;;;;;;20.79;42.59;99286.16;10314322;28;20245;-36
2023/07/21 07:33:18;;;;;;;2.50;1.80;;;;;;;20.94;41.53;99327.00;10316503;28;20601;-35
2023/07/21 07:38:24;;;;;;;6.15;2.00;;;;;;;21.37;41.71;99275.22;10315299;28;20210;-36
2023/07/21 07:43:26;;;;;;;2.53;2.13;;;;;;;21.13;42.60;99340.16;10313098;28;20260;-35
2023/07/21 07:48:27;;;;;;;3.05;2.05;;;;;;;21.53;41.51;99320.44;10314990;28;20332;-35
2023/07/21 07:53:30;;;;;;;2.42;2.08;;;;;;;21.46;40.68;99351.69;10316792;28;20229;-35
2023/07/21 07:58:32;;;;;;;2.60;1.85;;;;;;;22.39;40.23;99300.88;10314500;28;20287;-35
2023/07/21 08:03:34;;;;;;;1.85;1.70;;;;;;;21.84;40.56;99330.56;10314248;28;20230;-35
2023/07/21 08:08:36;;;;;;;2.20;1.88;;;;;;;22.27;39.25;99331.16;10313486;28;20233;-35
2023/07/21 08:13:39;;;;;;;2.45;2.00;;;;;;;22.33;38.34;99346.38;10314474;28;20237;-36
2023/07/21 08:18:41;;;;;;;2.67;1.75;;;;;;;21.32;37.45;99417.47;10312467;28;20257;-36
2023/07/21 08:23:43;;;;;;;2.22;1.90;;;;;;;22.30;36.92;99358.66;10312466;28;20238;-35
2023/07/21 08:28:45;;;;;;;1.92;1.73;;;;;;;22.27;36.36;99372.03;10312787;28;20270;-35
2023/07/21 08:33:47;;;;;;;2.05;1.42;;;;;;;22.33;36.40;99335.47;10312002;28;20238;-35
2023/07/21 08:38:50;;;;;;;2.20;1.60;;;;;;;22.37;36.11;99347.50;10313892;28;20928;-35
2023/07/21 08:43:53;;;;;;;6.40;5.85;;;;;;;20.51;37.12;99402.28;10312963;28;20308;-35
2023/07/21 08:48:54;;;;;;;4.28;3.28;;;;;;;22.19;36.15;99337.16;10308799;28;20242;-35
2023/07/21 08:53:56;;;;;;;1.77;1.60;;;;;;;22.75;36.09;99301.63;10310268;28;20683;-35
2023/07/21 08:58:58;;;;;;;2.40;1.73;;;;;;;21.90;36.71;99360.25;10310459;28;20285;-37
2023/07/21 09:04:00;;;;;;;2.08;1.80;;;;;;;21.32;37.29;99376.66;10318269;28;20234;-36
2023/07/21 09:09:02;;;;;;;4.35;1.70;;;;;;;20.97;37.47;99364.56;10308346;28;20230;-36
2023/07/21 09:14:04;;;;;;;2.33;1.90;;;;;;;23.16;35.07;99309.69;10311756;28;20323;-36
2023/07/21 09:19:06;;;;;;;4.05;1.45;;;;;;;22.07;35.34;99288.38;10311496;28;20905;-36
2023/07/21 09:24:08;;;;;;;1.40;1.30;;;;;;;20.78;35.62;99368.78;10309071;28;20241;-36
2023/07/21 09:29:20;;;;;;;2.85;1.52;;;;;;;22.06;34.57;99388.34;10308218;28;20237;-35
2023/07/21 09:34:22;;;;;;;1.67;1.58;;;;;;;23.95;34.45;99284.31;10312317;28;20809;-36
2023/07/21 09:39:24;;;;;;;2.35;1.60;;;;;;;21.96;35.76;99310.19;10313047;28;20217;-36
2023/07/21 09:44:27;;;;;;;1.60;1.50;;;;;;;21.84;36.06;99336.81;10307958;28;20261;-36
2023/07/21 09:49:28;;;;;;;2.60;1.80;;;;;;;23.10;34.73;99275.31;10312817;28;20242;-36
2023/07/21 09:54:32;;;;;;;1.83;1.58;;;;;;;23.77;33.56;99313.97;10312398;28;20347;-36
2023/07/21 09:59:42;;;;;;;2.50;1.77;;;;;;;22.49;35.09;99319.94;10308003;28;20746;-36
2023/07/21 10:04:45;;;;;;;2.72;1.67;;;;;;;22.82;34.50;99304.84;10307187;28;20234;-37
2023/07/21 10:09:49;;;;;;;1.60;1.50;;;;;;;23.08;34.57;99313.00;10310646;28;20316;-36
2023/07/21 10:14:51;;;;;;;2.17;1.50;;;;;;;22.15;34.95;99372.28;10309364;28;20288;-36
2023/07/21 10:20:06;;;;;;;1.67;1.45;;;;;;;22.26;35.08;99363.00;10310253;28;20861;-36
2023/07/21 10:25:10;;;;;;;3.22;1.70;;;;;;;22.58;35.06;99291.03;10303779;28;21084;-36
2023/07/21 10:30:20;;;;;;;2.28;1.83;;;;;;;22.75;34.72;99342.53;10306143;28;20746;-36
2023/07/21 10:35:38;;;;;;;1.83;1.73;;;;;;;22.25;35.27;99285.09;10308874;28;20249;-36
2023/07/21 10:40:44;;;;;;;2.63;1.92;;;;;;;22.96;34.67;99320.63;10307424;28;20237;-36
2023/07/21 10:45:51;;;;;;;15.65;10.50;;;;;;;22.98;34.77;99311.09;10308894;28;20316;-36
2023/07/21 10:50:58;;;;;;;2.67;2.13;;;;;;;23.34;34.29;99304.66;10305526;28;20234;-36
2023/07/21 10:56:07;;;;;;;2.00;1.80;;;;;;;22.39;36.02;99312.59;10307265;28;20589;-36
2023/07/21 11:06:22;;;;;;;2.25;1.80;;;;;;;18.96;40.68;99309.47;10361414;28;20831;-73
2023/07/21 11:11:24;;;;;;;1.90;1.80;;;;;;;19.06;40.92;99255.34;10340469;28;20256;-73
2023/07/21 11:16:26;;;;;;;1.85;1.75;;;;;;;19.34;40.01;99234.50;10337828;28;20236;-73
2023/07/21 11:21:28;;;;;;;1.65;1.50;;;;;;;18.88;40.12;99299.03;10340056;28;20280;-70
2023/07/21 11:26:29;;;;;;;1.70;1.60;;;;;;;20.09;38.56;99248.19;10340968;28;20245;-71
2023/07/21 11:31:33;;;;;;;2.22;1.70;;;;;;;21.07;37.76;99222.38;10338180;28;20648;-73
2023/07/21 11:36:35;;;;;;;3.20;2.13;;;;;;;19.69;38.66;99290.22;10337762;28;20281;-72
2023/07/21 11:41:40;;;;;;;1.63;1.52;;;;;;;19.38;39.09;99301.56;10340060;28;20342;-72
2023/07/21 11:46:42;;;;;;;1.77;1.40;;;;;;;19.43;39.23;99287.22;10337915;28;20237;-71
2023/07/21 11:51:45;;;;;;;1.65;1.50;;;;;;;20.11;37.54;99354.69;10339759;28;20704;-70
2023/07/21 11:56:47;;;;;;;1.70;1.60;;;;;;;19.78;38.76;99325.88;10336931;28;20239;-70
2023/07/21 12:01:49;;;;;;;6.30;2.20;;;;;;;19.32;39.44;99327.00;10339085;28;20286;-71
2023/07/21 12:06:52;;;;;;;2.92;1.77;;;;;;;21.26;37.94;99247.16;10341697;28;20237;-71
2023/07/21 12:11:55;;;;;;;1.65;1.55;;;;;;;20.20;39.15;99309.69;10339668;28;20229;-71
2023/07/21 12:16:57;;;;;;;1.92;1.75;;;;;;;19.82;39.37;99327.78;10316196;28;20233;-71
2023/07/21 12:21:59;;;;;;;2.05;1.52;;;;;;;19.52;38.51;99369.81;10312575;28;20241;-73
2023/07/21 12:27:01;;;;;;;1.67;1.58;;;;;;;18.84;39.28;99405.25;10311561;28;22327;-73
2023/07/21 12:32:03;;;;;;;2.92;1.63;;;;;;;20.66;38.28;99363.53;10311799;28;20320;-73
2023/07/21 12:37:05;;;;;;;1.88;1.60;;;;;;;20.21;39.22;99356.66;10311594;28;20597;-73
2023/07/21 12:42:07;;;;;;;1.80;1.48;;;;;;;19.95;40.86;99318.41;10310797;28;20230;-73
2023/07/21 12:47:09;;;;;;;2.08;1.65;;;;;;;19.58;42.40;99306.38;10307369;28;20242;-72
2023/07/21 12:52:14;;;;;;;3.70;1.77;;;;;;;19.12;43.38;99381.81;10307061;28;20226;-72
2023/07/21 12:57:16;;;;;;;3.58;1.67;;;;;;;19.16;45.19;99306.19;10310357;28;20714;-73
2023/07/21 13:02:17;;;;;;;2.50;1.67;;;;;;;19.90;44.64;99264.88;10307569;28;20265;-71
2023/07/21 13:07:19;;;;;;;3.40;1.83;;;;;;;21.00;44.18;99304.19;10309863;28;20234;-73
2023/07/21 13:12:21;;;;;;;2.15;1.95;;;;;;;21.38;43.99;99315.78;10308781;28;20216;-71
2023/07/21 13:17:23;;;;;;;3.50;1.58;;;;;;;21.94;44.14;99308.81;10306329;28;20230;-73
2023/07/21 13:22:25;;;;;;;2.70;2.10;;;;;;;20.63;46.33;99326.00;10347704;28;20221;-70
2023/07/21 13:27:27;;;;;;;3.65;1.90;;;;;;;19.71;47.67;99402.06;10345889;28;20299;-73
2023/07/21 13:32:28;;;;;;;2.00;1.58;;;;;;;19.15;49.43;99359.59;10346544;28;20202;-73
2023/07/21 13:37:30;;;;;;;2.30;1.90;;;;;;;20.07;48.09;99356.25;10351536;28;20256;-72
2023/07/21 13:42:32;;;;;;;2.17;1.65;;;;;;;19.09;49.77;99378.78;10349240;28;20320;-73
2023/07/21 13:47:35;;;;;;;2.15;1.77;;;;;;;20.67;48.23;99365.97;10349093;28;20237;-72
2023/07/21 13:52:36;;;;;;;3.78;2.10;;;;;;;20.66;48.21;99371.69;10346737;28;20240;-72
2023/07/21 13:57:38;;;;;;;3.60;2.10;;;;;;;20.36;50.41;99372.28;10342807;28;20253;-72
2023/07/21 14:02:40;;;;;;;2.70;1.98;;;;;;;20.17;50.54;99393.59;10345235;28;20247;-72
2023/07/21 14:07:44;;;;;;;1.83;1.73;;;;;;;20.82;48.06;99394.38;10343741;28;20629;-72
2023/07/21 14:12:48;;;;;;;2.50;2.10;;;;;;;21.22;47.30;99396.50;10344267;28;20233;-72
2023/07/21 14:17:51;;;;;;;1.67;1.50;;;;;;;21.38;46.50;99380.28;10342277;28;20328;-71
2023/07/21 14:22:53;;;;;;;2.78;1.83;;;;;;;21.38;46.05;99372.91;10344073;28;20773;-72
2023/07/21 14:27:55;;;;;;;3.00;1.67;;;;;;;21.06;45.75;99481.84;10345392;28;20332;-72
2023/07/21 14:32:57;;;;;;;3.20;1.80;;;;;;;20.31;45.99;99492.59;10344164;28;20260;-72
2023/07/21 14:37:59;;;;;;;1.90;1.70;;;;;;;20.53;46.23;99451.78;10344414;28;20241;-72
2023/07/21 14:43:01;;;;;;;2.38;1.50;;;;;;;20.11;47.08;99490.47;10342969;28;20264;-72
2023/07/21 14:48:02;;;;;;;2.00;1.80;;;;;;;20.76;46.19;99425.31;10344087;28;20233;-73
2023/07/21 14:53:04;;;;;;;2.10;1.90;;;;;;;20.28;48.52;99425.22;10346813;28;20225;-73
2023/07/21 14:58:06;;;;;;;4.75;2.20;;;;;;;20.40;49.48;99384.28;10342886;28;20299;-72
2023/07/21 15:03:08;;;;;;;2.50;2.20;;;;;;;19.91;49.62;99432.16;10347477;28;20240;-72
2023/07/21 15:08:11;;;;;;;3.35;2.40;;;;;;;19.61;50.11;99448.91;10351703;28;20283;-73
2023/07/21 15:13:13;;;;;;;3.80;2.30;;;;;;;20.06;49.82;99446.97;10341636;28;20577;-73
2023/07/21 15:18:15;;;;;;;3.25;2.53;;;;;;;20.33;49.28;99398.09;10346920;28;20233;-72
2023/07/21 15:23:16;;;;;;;2.53;2.15;;;;;;;20.47;49.28;99401.19;10345936;28;20371;-72
2023/07/21 15:28:18;;;;;;;2.80;2.08;;;;;;;19.75;49.76;99433.03;10342346;28;20728;-73
2023/07/21 15:33:20;;;;;;;2.45;1.80;;;;;;;20.16;48.89;99430.78;10344061;28;20231;-72
2023/07/21 15:38:22;;;;;;;2.03;1.83;;;;;;;20.47;47.92;99458.25;10346701;28;20787;-73
2023/07/21 15:43:25;;;;;;;4.07;2.10;;;;;;;20.22;48.18;99494.16;10344933;28;20288;-72
2023/07/21 15:48:28;;;;;;;2.40;2.15;;;;;;;20.44;47.55;99454.13;10345088;28;20268;-73
2023/07/21 15:53:30;;;;;;;2.20;1.90;;;;;;;20.94;47.59;99434.97;10352186;28;20320;-73
2023/07/21 15:58:31;;;;;;;3.97;1.67;;;;;;;21.54;45.71;99466.34;10353186;28;20233;-72
2023/07/21 16:03:33;;;;;;;2.55;1.80;;;;;;;21.25;46.62;99433.25;10350604;28;20858;-72
2023/07/21 16:08:36;;;;;;;2.28;2.10;;;;;;;20.90;46.91;99545.34;10349778;28;20594;-73
2023/07/21 16:13:38;;;;;;;1.90;1.80;;;;;;;21.07;46.39;99493.53;10352937;28;20596;-73
2023/07/21 16:18:40;;;;;;;2.30;2.00;;;;;;;22.01;44.87;99461.06;10351854;28;20786;-73
2023/07/21 16:23:42;;;;;;;3.20;2.30;;;;;;;21.66;45.34;99501.53;10349660;28;20241;-69
2023/07/21 16:28:44;;;;;;;3.28;1.83;;;;;;;22.09;43.93;99534.91;10349555;28;20622;-69
2023/07/21 16:33:48;;;;;;;5.13;2.08;;;;;;;23.09;43.29;99472.88;10349811;28;20236;-69
2023/07/21 16:38:50;;;;;;;4.03;2.13;;;;;;;22.12;42.85;99571.72;10349543;28;20236;-69
2023/07/21 16:43:52;;;;;;;2.08;1.50;;;;;;;21.81;37.72;99579.72;10350311;28;20241;-69
2023/07/21 16:48:53;;;;;;;2.55;1.70;;;;;;;21.92;37.86;99545.19;10350589;28;20388;-69
2023/07/21 16:53:55;;;;;;;1.55;1.45;;;;;;;22.28;37.11;99532.50;10348276;28;20322;-69
2023/07/21 16:58:57;;;;;;;2.22;1.48;;;;;;;22.57;37.00;99523.06;10350143;28;20245;-68
2023/07/21 17:03:58;;;;;;;2.60;1.50;;;;;;;22.08;37.25;99568.72;10345642;28;20662;-69
2023/07/21 17:09:01;;;;;;;2.22;1.55;;;;;;;22.14;37.04;99526.75;10350104;28;20235;-69
2023/07/21 17:14:02;;;;;;;1.27;1.17;;;;;;;21.81;37.64;99505.38;10348778;28;20246;-68
2023/07/21 17:19:04;;;;;;;2.15;1.60;;;;;;;21.29;37.53;99545.09;10352237;28;20236;-69
2023/07/21 17:24:06;;;;;;;1.95;1.48;;;;;;;22.67;36.16;99518.44;10346923;28;20233;-69
2023/07/21 17:29:08;;;;;;;1.50;1.40;;;;;;;22.43;37.03;99539.09;10349013;28;20236;-69
2023/07/21 17:34:09;;;;;;;2.47;1.75;;;;;;;22.44;37.25;99508.84;10347921;28;20279;-69
2023/07/21 17:39:11;;;;;;;1.90;1.80;;;;;;;21.83;37.41;99527.72;10347126;28;20241;-69
2023/07/21 17:44:13;;;;;;;1.40;1.30;;;;;;;21.85;37.71;99523.66;10347249;28;20229;-69
2023/07/21 17:49:14;;;;;;;1.83;1.30;;;;;;;22.54;37.53;99486.25;10350425;28;20272;-69
2023/07/21 17:54:16;;;;;;;1.70;1.60;;;;;;;21.90;38.37;99488.25;10347919;28;20316;-69
2023/07/21 17:59:18;;;;;;;2.28;1.58;;;;;;;22.11;38.02;99512.88;10344424;28;20291;-69
2023/07/21 18:04:20;;;;;;;1.67;1.52;;;;;;;21.67;38.06;99530.38;10347553;28;20257;-69
2023/07/21 18:09:21;;;;;;;2.03;1.63;;;;;;;22.40;38.13;99444.22;10345723;28;20448;-69
2023/07/21 18:14:27;;;;;;;2.85;1.90;;;;;;;20.97;40.01;99467.91;10345505;28;20225;-69
2023/07/21 18:19:28;;;;;;;3.67;1.80;;;;;;;21.44;38.58;99504.38;10342413;28;20587;-69
2023/07/21 18:24:30;;;;;;;1.50;1.40;;;;;;;22.31;38.02;99463.84;10346186;28;20240;-69
2023/07/21 18:29:32;;;;;;;2.00;1.80;;;;;;;21.91;39.16;99440.88;10342975;28;20229;-68
2023/07/21 18:34:34;;;;;;;1.65;1.33;;;;;;;21.57;39.20;99467.72;10345887;28;20260;-68
2023/07/21 18:39:37;;;;;;;1.92;1.73;;;;;;;21.66;39.09;99470.72;10345321;28;20233;-68
2023/07/21 18:44:39;;;;;;;2.13;1.70;;;;;;;21.93;39.05;99446.03;10342951;28;20650;-69
2023/07/21 18:49:41;;;;;;;1.38;1.27;;;;;;;21.52;39.43;99427.66;10345029;28;20291;-69
2023/07/21 18:54:45;;;;;;;2.03;1.67;;;;;;;21.17;39.74;99472.66;10339935;28;20284;-68
2023/07/21 18:59:46;;;;;;;3.40;1.70;;;;;;;22.12;39.13;99438.22;10344716;28;20229;-68
2023/07/21 19:04:48;;;;;;;3.58;1.98;;;;;;;20.51;44.05;99502.84;10342261;28;20283;-68
2023/07/21 19:09:50;;;;;;;5.57;2.10;;;;;;;20.07;46.49;99452.13;10342607;28;20225;-68
2023/07/21 19:14:51;;;;;;;2.45;2.08;;;;;;;19.74;47.74;99432.22;10345111;28;20237;-68
2023/07/21 19:19:53;;;;;;;2.20;2.00;;;;;;;20.68;45.91;99381.22;10344405;28;20320;-68
2023/07/21 19:24:55;;;;;;;2.45;1.73;;;;;;;19.84;47.11;99477.69;10347221;28;20229;-68
2023/07/21 19:29:57;;;;;;;2.17;1.95;;;;;;;19.95;47.59;99446.84;10353374;28;20253;-68
2023/07/21 19:34:58;;;;;;;2.95;2.30;;;;;;;20.37;46.59;99461.69;10354193;28;20229;-69
2023/07/21 19:40:00;;;;;;;2.38;2.13;;;;;;;20.82;46.02;99429.75;10353421;28;20237;-67
2023/07/21 19:45:03;;;;;;;4.10;2.13;;;;;;;19.52;47.78;99508.19;10352655;28;20255;-68
2023/07/21 19:50:05;;;;;;;3.58;2.08;;;;;;;20.16;46.20;99528.56;10352338;28;20260;-68
2023/07/21 19:55:07;;;;;;;2.63;2.10;;;;;;;19.89;46.83;99529.34;10354324;28;20802;-68
2023/07/21 20:00:11;;;;;;;2.00;1.90;;;;;;;18.73;48.84;99543.56;10365685;28;20229;-68
2023/07/21 20:05:12;;;;;;;7.05;2.65;;;;;;;19.16;48.32;99526.66;10350727;28;20237;-68
2023/07/21 20:10:14;;;;;;;2.83;2.20;;;;;;;19.28;48.26;99517.63;10350583;28;20705;-69
2023/07/21 20:15:19;;;;;;;2.95;2.20;;;;;;;20.29;46.37;99522.75;10356669;28;20667;-68
2023/07/21 20:20:20;;;;;;;2.53;2.20;;;;;;;20.17;46.53;99535.66;10353188;28;20322;-68
2023/07/21 20:25:22;;;;;;;3.33;2.40;;;;;;;19.42;47.96;99561.47;10352153;28;20241;-69
2023/07/21 20:30:24;;;;;;;2.45;2.25;;;;;;;19.41;47.86;99579.66;10346827;28;20264;-69
2023/07/21 20:35:26;;;;;;;4.45;2.10;;;;;;;20.03;47.18;99558.81;10353455;28;20345;-68
2023/07/21 20:40:28;;;;;;;2.63;2.25;;;;;;;19.28;47.49;99648.66;10353732;28;20696;-69
2023/07/21 20:45:31;;;;;;;3.40;2.20;;;;;;;20.02;47.01;99565.31;10349847;28;20261;-69
2023/07/21 20:50:32;;;;;;;2.63;2.08;;;;;;;19.56;47.80;99595.38;10350485;28;20779;-69
2023/07/21 20:55:34;;;;;;;5.23;2.73;;;;;;;19.52;47.79;99595.03;10354230;28;20673;-68
2023/07/21 21:00:36;;;;;;;2.65;2.15;;;;;;;18.35;49.28;99688.59;10349949;28;20788;-68
2023/07/21 21:05:38;;;;;;;4.00;2.22;;;;;;;18.64;49.24;99648.81;10347658;28;20372;-69
2023/07/21 21:10:40;;;;;;;2.83;2.20;;;;;;;20.00;46.64;99608.19;10349625;28;20319;-69
2023/07/21 21:15:46;;;;;;;3.17;2.10;;;;;;;20.05;46.53;99595.50;10350710;28;20241;-69
2023/07/21 21:20:48;;;;;;;3.03;2.35;;;;;;;19.38;47.91;99600.00;10350965;28;20668;-68
2023/07/21 21:25:55;;;;;;;3.17;2.60;;;;;;;18.68;49.28;99647.28;10349838;28;20233;-68
2023/07/21 21:30:58;;;;;;;2.80;2.35;;;;;;;19.53;47.41;99645.50;10352640;28;20724;-68
2023/07/21 21:36:00;;;;;;;4.20;2.77;;;;;;;19.25;47.60;99686.28;10348585;28;20226;-68
2023/07/21 21:41:03;;;;;;;2.78;2.35;;;;;;;19.59;47.63;99641.03;10350065;28;20240;-69
2023/07/21 21:46:05;;;;;;;2.77;2.40;;;;;;;18.73;48.54;99711.59;10346521;28;20316;-67
2023/07/21 21:51:06;;;;;;;2.45;2.10;;;;;;;18.31;49.34;99693.69;10349534;28;20418;-68
2023/07/21 21:56:09;;;;;;;2.88;2.28;;;;;;;19.48;47.21;99659.00;10347593;28;20314;-68
2023/07/21 22:01:11;;;;;;;3.50;2.45;;;;;;;19.32;48.14;99627.28;10346236;28;20229;-68
2023/07/21 22:06:13;;;;;;;2.93;2.47;;;;;;;19.08;48.36;99654.56;10346363;28;20272;-69
2023/07/21 22:11:15;;;;;;;2.50;2.30;;;;;;;19.12;47.76;99693.66;10345126;28;20676;-69
2023/07/21 22:16:16;;;;;;;3.83;2.63;;;;;;;19.07;47.86;99701.72;10345743;28;20225;-68
2023/07/21 22:21:18;;;;;;;2.63;2.40;;;;;;;18.52;49.05;99703.03;10347147;28;20687;-68
2023/07/21 22:26:20;;;;;;;2.35;2.15;;;;;;;19.06;48.32;99663.97;10348460;28;20313;-68
2023/07/21 22:31:22;;;;;;;2.80;2.60;;;;;;;18.79;48.32;99740.44;10345235;28;20320;-68
2023/07/21 22:36:23;;;;;;;2.40;2.20;;;;;;;18.32;49.05;99768.47;10347132;28;20226;-68
2023/07/21 22:41:26;;;;;;;3.30;2.50;;;;;;;18.68;48.82;99731.28;10347262;28;20347;-69
2023/07/21 22:46:28;;;;;;;3.33;2.70;;;;;;;19.34;47.29;99720.91;10344604;28;20727;-68
2023/07/21 22:51:30;;;;;;;6.40;2.90;;;;;;;19.60;46.61;99732.22;10345031;28;20610;-69
2023/07/21 22:56:32;;;;;;;2.63;2.37;;;;;;;19.56;47.16;99723.75;10347169;28;20229;-68
2023/07/21 23:01:33;;;;;;;3.13;2.40;;;;;;;20.34;45.88;99730.38;10342641;28;20711;-69
2023/07/21 23:06:35;;;;;;;3.23;2.70;;;;;;;18.68;48.44;99785.50;10343822;28;20279;-69
2023/07/21 23:11:37;;;;;;;3.70;2.40;;;;;;;18.24;49.28;99791.28;10346487;28;20320;-69
2023/07/21 23:16:39;;;;;;;3.38;2.67;;;;;;;19.37;47.28;99768.44;10345480;28;20233;-69
2023/07/21 23:21:41;;;;;;;2.72;2.47;;;;;;;19.11;47.67;99759.00;10344454;28;20236;-69
2023/07/21 23:26:42;;;;;;;2.83;2.30;;;;;;;18.83;48.48;99768.72;10347758;28;20565;-69
2023/07/21 23:31:44;;;;;;;2.60;2.40;;;;;;;19.79;46.60;99727.38;10345912;28;20319;-69